sensor_id;sensor_type;location;lat;lon;timestamp;P1;durP1;ratioP1;P2;durP2;ratioP2
23826;SDS011;12094;50.822;4.376;2022-08-04T00:00:38;13.63;;;3.90;;
23826;SDS011;12094;50.822;4.376;2022-08-04T00:03:23;16.77;;;3.53;;
23826;SDS011;12094;50.822;4.376;2022-08-04T00:08:40;15.93;;;3.60;;
23826;SDS011;12094;50.822;4.376;2022-08-04T00:11:09;13.52;;;3.17;;
23826;SDS011;12094;50.822;4.376;2022-08-04T00:13:41;9.32;;;3.38;;
23826;SDS011;12094;50.822;4.376;2022-08-04T00:16:29;8.40;;;3.15;;
23826;SDS011;12094;50.822;4.376;2022-08-04T00:19:18;11.57;;;3.00;;
23826;SDS011;12094;50.822;4.376;2022-08-04T00:22:02;12.60;;;3.92;;
23826;SDS011;12094;50.822;4.376;2022-08-04T00:24:31;10.15;;;3.15;;
23826;SDS011;12094;50.822;4.376;2022-08-04T00:27:01;11.40;;;3.40;;
23826;SDS011;12094;50.822;4.376;2022-08-04T00:29:28;13.95;;;3.53;;
23826;SDS011;12094;50.822;4.376;2022-08-04T00:31:56;13.85;;;3.65;;
23826;SDS011;12094;50.822;4.376;2022-08-04T00:34:24;12.73;;;3.67;;
23826;SDS011;12094;50.822;4.376;2022-08-04T00:36:56;10.95;;;3.47;;
23826;SDS011;12094;50.822;4.376;2022-08-04T00:39:24;11.52;;;3.35;;
23826;SDS011;12094;50.822;4.376;2022-08-04T00:42:07;8.77;;;3.10;;
23826;SDS011;12094;50.822;4.376;2022-08-04T00:45:46;13.68;;;3.50;;
23826;SDS011;12094;50.822;4.376;2022-08-04T00:54:05;11.80;;;3.72;;
23826;SDS011;12094;50.822;4.376;2022-08-04T01:00:10;16.33;;;4.55;;
23826;SDS011;12094;50.822;4.376;2022-08-04T01:05:20;21.77;;;4.65;;
23826;SDS011;12094;50.822;4.376;2022-08-04T01:11:08;22.35;;;5.30;;
23826;SDS011;12094;50.822;4.376;2022-08-04T01:14:28;23.17;;;4.88;;
23826;SDS011;12094;50.822;4.376;2022-08-04T01:17:10;14.43;;;4.57;;
23826;SDS011;12094;50.822;4.376;2022-08-04T01:19:53;16.83;;;5.03;;
23826;SDS011;12094;50.822;4.376;2022-08-04T01:30:24;17.58;;;4.85;;
23826;SDS011;12094;50.822;4.376;2022-08-04T01:33:01;17.08;;;4.65;;
23826;SDS011;12094;50.822;4.376;2022-08-04T01:40:51;12.52;;;4.43;;
23826;SDS011;12094;50.822;4.376;2022-08-04T01:43:22;17.60;;;5.03;;
23826;SDS011;12094;50.822;4.376;2022-08-04T01:45:50;17.05;;;5.47;;
23826;SDS011;12094;50.822;4.376;2022-08-04T01:48:24;14.10;;;5.72;;
23826;SDS011;12094;50.822;4.376;2022-08-04T01:50:52;10.13;;;4.63;;
23826;SDS011;12094;50.822;4.376;2022-08-04T01:53:23;13.52;;;5.35;;
23826;SDS011;12094;50.822;4.376;2022-08-04T01:55:56;15.13;;;4.63;;
23826;SDS011;12094;50.822;4.376;2022-08-04T01:58:23;15.25;;;5.03;;
23826;SDS011;12094;50.822;4.376;2022-08-04T02:00:58;10.52;;;4.50;;
23826;SDS011;12094;50.822;4.376;2022-08-04T02:03:37;14.13;;;5.68;;
23826;SDS011;12094;50.822;4.376;2022-08-04T02:08:59;19.00;;;5.80;;
23826;SDS011;12094;50.822;4.376;2022-08-04T02:11:31;20.42;;;5.60;;
23826;SDS011;12094;50.822;4.376;2022-08-04T02:16:40;13.40;;;5.30;;
23826;SDS011;12094;50.822;4.376;2022-08-04T02:22:26;17.40;;;5.07;;
23826;SDS011;12094;50.822;4.376;2022-08-04T02:24:59;13.70;;;5.55;;
23826;SDS011;12094;50.822;4.376;2022-08-04T02:30:57;13.05;;;4.82;;
23826;SDS011;12094;50.822;4.376;2022-08-04T02:34:19;9.82;;;4.72;;
23826;SDS011;12094;50.822;4.376;2022-08-04T02:36:38;18.00;;;5.65;;
23826;SDS011;12094;50.822;4.376;2022-08-04T02:39:07;11.20;;;4.95;;
23826;SDS011;12094;50.822;4.376;2022-08-04T02:41:37;10.63;;;4.93;;
23826;SDS011;12094;50.822;4.376;2022-08-04T02:44:08;12.93;;;5.82;;
23826;SDS011;12094;50.822;4.376;2022-08-04T02:46:37;15.27;;;5.07;;
23826;SDS011;12094;50.822;4.376;2022-08-04T02:49:08;12.27;;;4.85;;
23826;SDS011;12094;50.822;4.376;2022-08-04T02:51:39;11.60;;;4.82;;
23826;SDS011;12094;50.822;4.376;2022-08-04T02:54:08;13.85;;;5.20;;
23826;SDS011;12094;50.822;4.376;2022-08-04T02:56:37;18.80;;;5.30;;
23826;SDS011;12094;50.822;4.376;2022-08-04T02:59:08;12.98;;;5.20;;
23826;SDS011;12094;50.822;4.376;2022-08-04T03:01:37;14.38;;;6.03;;
23826;SDS011;12094;50.822;4.376;2022-08-04T03:21:32;12.02;;;6.25;;
23826;SDS011;12094;50.822;4.376;2022-08-04T03:30:12;14.85;;;6.60;;
23826;SDS011;12094;50.822;4.376;2022-08-04T04:13:06;14.18;;;5.18;;
23826;SDS011;12094;50.822;4.376;2022-08-04T04:18:32;13.85;;;4.53;;
23826;SDS011;12094;50.822;4.376;2022-08-04T04:37:19;10.18;;;4.03;;
23826;SDS011;12094;50.822;4.376;2022-08-04T04:45:33;13.50;;;4.22;;
23826;SDS011;12094;50.822;4.376;2022-08-04T04:53:50;11.97;;;4.47;;
23826;SDS011;12094;50.822;4.376;2022-08-04T04:59:12;17.38;;;5.30;;
23826;SDS011;12094;50.822;4.376;2022-08-04T05:01:49;16.00;;;5.00;;
23826;SDS011;12094;50.822;4.376;2022-08-04T05:16:26;12.73;;;4.70;;
23826;SDS011;12094;50.822;4.376;2022-08-04T05:21:49;24.05;;;4.63;;
23826;SDS011;12094;50.822;4.376;2022-08-04T05:24:22;11.55;;;4.65;;
23826;SDS011;12094;50.822;4.376;2022-08-04T05:26:52;17.35;;;4.90;;
23826;SDS011;12094;50.822;4.376;2022-08-04T05:29:27;13.38;;;4.80;;
23826;SDS011;12094;50.822;4.376;2022-08-04T05:32:03;12.85;;;5.00;;
23826;SDS011;12094;50.822;4.376;2022-08-04T05:37:10;14.40;;;5.25;;
23826;SDS011;12094;50.822;4.376;2022-08-04T05:39:49;14.95;;;5.13;;
23826;SDS011;12094;50.822;4.376;2022-08-04T05:42:20;15.10;;;4.65;;
23826;SDS011;12094;50.822;4.376;2022-08-04T05:44:49;17.50;;;5.95;;
23826;SDS011;12094;50.822;4.376;2022-08-04T05:47:17;15.80;;;5.45;;
23826;SDS011;12094;50.822;4.376;2022-08-04T05:49:50;17.15;;;5.18;;
23826;SDS011;12094;50.822;4.376;2022-08-04T05:52:29;12.27;;;5.20;;
23826;SDS011;12094;50.822;4.376;2022-08-04T05:55:02;17.17;;;4.97;;
23826;SDS011;12094;50.822;4.376;2022-08-04T05:57:30;19.05;;;5.22;;
23826;SDS011;12094;50.822;4.376;2022-08-04T05:59:59;16.80;;;4.60;;
23826;SDS011;12094;50.822;4.376;2022-08-04T06:02:50;13.75;;;5.30;;
23826;SDS011;12094;50.822;4.376;2022-08-04T06:05:19;15.10;;;5.00;;
23826;SDS011;12094;50.822;4.376;2022-08-04T06:07:46;19.50;;;4.70;;
23826;SDS011;12094;50.822;4.376;2022-08-04T06:10:33;16.48;;;4.65;;
23826;SDS011;12094;50.822;4.376;2022-08-04T06:13:09;12.93;;;4.50;;
23826;SDS011;12094;50.822;4.376;2022-08-04T06:15:58;19.42;;;4.47;;
23826;SDS011;12094;50.822;4.376;2022-08-04T06:18:28;19.05;;;4.57;;
23826;SDS011;12094;50.822;4.376;2022-08-04T06:21:19;11.38;;;4.68;;
23826;SDS011;12094;50.822;4.376;2022-08-04T06:23:49;12.75;;;4.72;;
23826;SDS011;12094;50.822;4.376;2022-08-04T06:26:29;17.95;;;4.50;;
23826;SDS011;12094;50.822;4.376;2022-08-04T06:29:00;14.90;;;4.03;;
23826;SDS011;12094;50.822;4.376;2022-08-04T06:31:28;14.30;;;3.75;;
23826;SDS011;12094;50.822;4.376;2022-08-04T06:34:39;12.30;;;4.25;;
23826;SDS011;12094;50.822;4.376;2022-08-04T06:37:08;17.73;;;4.60;;
23826;SDS011;12094;50.822;4.376;2022-08-04T06:39:36;15.43;;;4.60;;
23826;SDS011;12094;50.822;4.376;2022-08-04T06:42:04;13.55;;;5.22;;
23826;SDS011;12094;50.822;4.376;2022-08-04T06:44:50;20.13;;;5.30;;
23826;SDS011;12094;50.822;4.376;2022-08-04T06:47:22;12.63;;;5.03;;
23826;SDS011;12094;50.822;4.376;2022-08-04T06:49:50;18.33;;;4.93;;
23826;SDS011;12094;50.822;4.376;2022-08-04T06:52:40;13.35;;;4.70;;
23826;SDS011;12094;50.822;4.376;2022-08-04T06:55:10;14.82;;;4.25;;
23826;SDS011;12094;50.822;4.376;2022-08-04T06:57:39;13.18;;;4.53;;
23826;SDS011;12094;50.822;4.376;2022-08-04T07:00:09;14.43;;;3.97;;
23826;SDS011;12094;50.822;4.376;2022-08-04T07:02:50;15.93;;;4.05;;
23826;SDS011;12094;50.822;4.376;2022-08-04T07:05:19;9.60;;;3.15;;
23826;SDS011;12094;50.822;4.376;2022-08-04T07:07:47;15.63;;;4.97;;
23826;SDS011;12094;50.822;4.376;2022-08-04T07:10:28;14.85;;;4.80;;
23826;SDS011;12094;50.822;4.376;2022-08-04T07:12:59;14.57;;;5.07;;
23826;SDS011;12094;50.822;4.376;2022-08-04T07:15:28;18.17;;;5.20;;
23826;SDS011;12094;50.822;4.376;2022-08-04T07:17:57;18.33;;;5.20;;
23826;SDS011;12094;50.822;4.376;2022-08-04T07:20:27;15.80;;;4.90;;
23826;SDS011;12094;50.822;4.376;2022-08-04T07:23:05;17.50;;;5.50;;
23826;SDS011;12094;50.822;4.376;2022-08-04T07:25:34;15.18;;;5.40;;
23826;SDS011;12094;50.822;4.376;2022-08-04T07:28:25;13.38;;;4.68;;
23826;SDS011;12094;50.822;4.376;2022-08-04T07:30:53;15.88;;;4.32;;
23826;SDS011;12094;50.822;4.376;2022-08-04T07:33:22;16.10;;;4.75;;
23826;SDS011;12094;50.822;4.376;2022-08-04T07:35:53;17.30;;;5.32;;
23826;SDS011;12094;50.822;4.376;2022-08-04T07:38:40;14.70;;;4.95;;
23826;SDS011;12094;50.822;4.376;2022-08-04T07:41:18;14.38;;;5.20;;
23826;SDS011;12094;50.822;4.376;2022-08-04T07:44:05;14.35;;;5.15;;
23826;SDS011;12094;50.822;4.376;2022-08-04T07:46:34;14.75;;;4.68;;
23826;SDS011;12094;50.822;4.376;2022-08-04T07:49:03;13.90;;;4.78;;
23826;SDS011;12094;50.822;4.376;2022-08-04T07:51:35;13.38;;;4.85;;
23826;SDS011;12094;50.822;4.376;2022-08-04T07:54:03;17.25;;;4.72;;
23826;SDS011;12094;50.822;4.376;2022-08-04T07:56:37;12.82;;;4.88;;
23826;SDS011;12094;50.822;4.376;2022-08-04T07:59:05;21.38;;;4.60;;
23826;SDS011;12094;50.822;4.376;2022-08-04T08:01:34;13.88;;;4.88;;
23826;SDS011;12094;50.822;4.376;2022-08-04T08:04:04;15.50;;;4.60;;
23826;SDS011;12094;50.822;4.376;2022-08-04T08:06:35;21.33;;;4.93;;
23826;SDS011;12094;50.822;4.376;2022-08-04T08:09:10;18.65;;;5.10;;
23826;SDS011;12094;50.822;4.376;2022-08-04T08:11:41;13.55;;;4.47;;
23826;SDS011;12094;50.822;4.376;2022-08-04T08:14:32;16.58;;;4.88;;
23826;SDS011;12094;50.822;4.376;2022-08-04T08:17:00;15.32;;;4.97;;
23826;SDS011;12094;50.822;4.376;2022-08-04T08:19:30;16.92;;;5.45;;
23826;SDS011;12094;50.822;4.376;2022-08-04T08:21:58;19.55;;;5.80;;
23826;SDS011;12094;50.822;4.376;2022-08-04T08:27:05;18.58;;;5.78;;
23826;SDS011;12094;50.822;4.376;2022-08-04T08:29:33;16.10;;;6.63;;
23826;SDS011;12094;50.822;4.376;2022-08-04T08:32:02;17.80;;;7.13;;
23826;SDS011;12094;50.822;4.376;2022-08-04T08:34:34;16.33;;;6.88;;
23826;SDS011;12094;50.822;4.376;2022-08-04T08:45:31;17.05;;;6.20;;
23826;SDS011;12094;50.822;4.376;2022-08-04T08:48:32;20.70;;;7.85;;
23826;SDS011;12094;50.822;4.376;2022-08-04T09:03:06;20.15;;;7.57;;
23826;SDS011;12094;50.822;4.376;2022-08-04T09:08:28;18.95;;;7.97;;
23826;SDS011;12094;50.822;4.376;2022-08-04T09:11:17;24.13;;;10.30;;
23826;SDS011;12094;50.822;4.376;2022-08-04T09:13:49;22.45;;;8.15;;
23826;SDS011;12094;50.822;4.376;2022-08-04T09:16:51;23.05;;;8.23;;
23826;SDS011;12094;50.822;4.376;2022-08-04T09:19:31;19.17;;;9.48;;
23826;SDS011;12094;50.822;4.376;2022-08-04T09:27:34;22.33;;;9.10;;
23826;SDS011;12094;50.822;4.376;2022-08-04T09:30:06;19.67;;;9.55;;
23826;SDS011;12094;50.822;4.376;2022-08-04T09:32:46;22.48;;;9.48;;
23826;SDS011;12094;50.822;4.376;2022-08-04T09:47:09;25.77;;;10.88;;
23826;SDS011;12094;50.822;4.376;2022-08-04T09:58:49;23.60;;;13.05;;
23826;SDS011;12094;50.822;4.376;2022-08-04T10:01:32;22.33;;;12.68;;
23826;SDS011;12094;50.822;4.376;2022-08-04T10:04:02;31.85;;;14.93;;
23826;SDS011;12094;50.822;4.376;2022-08-04T10:06:41;31.60;;;14.70;;
23826;SDS011;12094;50.822;4.376;2022-08-04T10:09:20;31.60;;;15.60;;
23826;SDS011;12094;50.822;4.376;2022-08-04T10:12:26;37.75;;;18.38;;
23826;SDS011;12094;50.822;4.376;2022-08-04T10:17:50;29.67;;;17.17;;
23826;SDS011;12094;50.822;4.376;2022-08-04T10:26:54;37.58;;;19.50;;
23826;SDS011;12094;50.822;4.376;2022-08-04T10:29:30;33.38;;;17.02;;
23826;SDS011;12094;50.822;4.376;2022-08-04T10:35:10;25.67;;;17.60;;
23826;SDS011;12094;50.822;4.376;2022-08-04T10:40:44;31.65;;;18.15;;
23826;SDS011;12094;50.822;4.376;2022-08-04T10:46:22;28.25;;;17.05;;
23826;SDS011;12094;50.822;4.376;2022-08-04T10:52:21;28.77;;;17.95;;
23826;SDS011;12094;50.822;4.376;2022-08-04T10:55:07;33.45;;;17.20;;
23826;SDS011;12094;50.822;4.376;2022-08-04T10:57:46;32.33;;;19.90;;
23826;SDS011;12094;50.822;4.376;2022-08-04T11:00:24;31.55;;;20.17;;
23826;SDS011;12094;50.822;4.376;2022-08-04T11:08:25;37.78;;;22.20;;
23826;SDS011;12094;50.822;4.376;2022-08-04T11:10:58;36.22;;;22.63;;
23826;SDS011;12094;50.822;4.376;2022-08-04T11:13:53;36.40;;;21.75;;
23826;SDS011;12094;50.822;4.376;2022-08-04T11:16:51;34.22;;;19.98;;
23826;SDS011;12094;50.822;4.376;2022-08-04T11:19:46;25.88;;;17.80;;
23826;SDS011;12094;50.822;4.376;2022-08-04T11:23:07;26.30;;;15.50;;
23826;SDS011;12094;50.822;4.376;2022-08-04T11:25:43;22.38;;;15.15;;
23826;SDS011;12094;50.822;4.376;2022-08-04T11:31:24;23.95;;;16.48;;
23826;SDS011;12094;50.822;4.376;2022-08-04T11:39:44;27.83;;;17.23;;
23826;SDS011;12094;50.822;4.376;2022-08-04T11:42:25;24.90;;;16.80;;
23826;SDS011;12094;50.822;4.376;2022-08-04T11:45:10;26.73;;;17.30;;
23826;SDS011;12094;50.822;4.376;2022-08-04T11:47:47;24.83;;;17.20;;
23826;SDS011;12094;50.822;4.376;2022-08-04T11:50:38;30.42;;;17.98;;
23826;SDS011;12094;50.822;4.376;2022-08-04T11:53:14;25.08;;;16.20;;
23826;SDS011;12094;50.822;4.376;2022-08-04T11:55:45;21.77;;;14.57;;
23826;SDS011;12094;50.822;4.376;2022-08-04T11:58:34;23.75;;;14.77;;
23826;SDS011;12094;50.822;4.376;2022-08-04T12:04:54;19.55;;;14.10;;
23826;SDS011;12094;50.822;4.376;2022-08-04T12:07:31;18.15;;;11.77;;
23826;SDS011;12094;50.822;4.376;2022-08-04T12:19:16;20.73;;;12.23;;
23826;SDS011;12094;50.822;4.376;2022-08-04T12:21:48;17.10;;;11.10;;
23826;SDS011;12094;50.822;4.376;2022-08-04T12:24:26;15.45;;;9.60;;
23826;SDS011;12094;50.822;4.376;2022-08-04T12:29:43;15.27;;;8.20;;
23826;SDS011;12094;50.822;4.376;2022-08-04T12:32:36;17.25;;;9.48;;
23826;SDS011;12094;50.822;4.376;2022-08-04T12:35:22;17.42;;;9.55;;
23826;SDS011;12094;50.822;4.376;2022-08-04T12:38:02;12.75;;;8.45;;
23826;SDS011;12094;50.822;4.376;2022-08-04T12:40:44;13.68;;;6.53;;
23826;SDS011;12094;50.822;4.376;2022-08-04T12:43:25;12.65;;;7.22;;
23826;SDS011;12094;50.822;4.376;2022-08-04T12:46:01;11.55;;;8.32;;
23826;SDS011;12094;50.822;4.376;2022-08-04T12:48:36;13.15;;;7.25;;
23826;SDS011;12094;50.822;4.376;2022-08-04T12:51:06;13.48;;;5.70;;
23826;SDS011;12094;50.822;4.376;2022-08-04T12:53:56;15.48;;;7.72;;
23826;SDS011;12094;50.822;4.376;2022-08-04T12:56:25;11.40;;;6.63;;
23826;SDS011;12094;50.822;4.376;2022-08-04T12:58:59;13.10;;;7.95;;
23826;SDS011;12094;50.822;4.376;2022-08-04T13:01:29;15.15;;;7.95;;
23826;SDS011;12094;50.822;4.376;2022-08-04T13:04:18;14.00;;;6.93;;
23826;SDS011;12094;50.822;4.376;2022-08-04T13:07:02;11.95;;;6.65;;
23826;SDS011;12094;50.822;4.376;2022-08-04T13:09:33;14.40;;;7.88;;
23826;SDS011;12094;50.822;4.376;2022-08-04T13:12:10;11.75;;;6.70;;
23826;SDS011;12094;50.822;4.376;2022-08-04T13:14:40;11.93;;;7.43;;
23826;SDS011;12094;50.822;4.376;2022-08-04T13:17:10;12.27;;;7.07;;
23826;SDS011;12094;50.822;4.376;2022-08-04T13:19:44;13.68;;;8.27;;
23826;SDS011;12094;50.822;4.376;2022-08-04T13:22:23;12.48;;;6.88;;
23826;SDS011;12094;50.822;4.376;2022-08-04T13:24:56;12.77;;;7.18;;
23826;SDS011;12094;50.822;4.376;2022-08-04T13:27:45;16.02;;;6.88;;
23826;SDS011;12094;50.822;4.376;2022-08-04T13:30:20;10.48;;;6.38;;
23826;SDS011;12094;50.822;4.376;2022-08-04T13:32:56;10.48;;;6.20;;
23826;SDS011;12094;50.822;4.376;2022-08-04T13:35:25;8.98;;;5.47;;
23826;SDS011;12094;50.822;4.376;2022-08-04T13:38:14;9.50;;;6.13;;
23826;SDS011;12094;50.822;4.376;2022-08-04T13:40:44;12.18;;;4.70;;
23826;SDS011;12094;50.822;4.376;2022-08-04T13:43:30;7.65;;;4.50;;
23826;SDS011;12094;50.822;4.376;2022-08-04T13:46:21;12.20;;;5.35;;
23826;SDS011;12094;50.822;4.376;2022-08-04T13:48:58;11.95;;;5.05;;
23826;SDS011;12094;50.822;4.376;2022-08-04T13:51:51;11.88;;;4.80;;
23826;SDS011;12094;50.822;4.376;2022-08-04T13:57:15;11.43;;;5.13;;
23826;SDS011;12094;50.822;4.376;2022-08-04T13:59:47;11.75;;;5.40;;
23826;SDS011;12094;50.822;4.376;2022-08-04T14:02:31;11.10;;;4.25;;
23826;SDS011;12094;50.822;4.376;2022-08-04T14:05:08;54.83;;;9.75;;
23826;SDS011;12094;50.822;4.376;2022-08-04T14:08:23;6.50;;;4.72;;
23826;SDS011;12094;50.822;4.376;2022-08-04T14:10:56;7.43;;;5.78;;
23826;SDS011;12094;50.822;4.376;2022-08-04T14:13:28;10.95;;;5.20;;
23826;SDS011;12094;50.822;4.376;2022-08-04T14:16:14;12.90;;;5.18;;
23826;SDS011;12094;50.822;4.376;2022-08-04T14:18:46;7.72;;;3.92;;
23826;SDS011;12094;50.822;4.376;2022-08-04T14:21:23;10.18;;;4.95;;
23826;SDS011;12094;50.822;4.376;2022-08-04T14:23:52;7.65;;;4.72;;
23826;SDS011;12094;50.822;4.376;2022-08-04T14:26:28;10.13;;;4.10;;
23826;SDS011;12094;50.822;4.376;2022-08-04T14:32:00;10.27;;;4.40;;
23826;SDS011;12094;50.822;4.376;2022-08-04T14:34:38;8.07;;;4.10;;
23826;SDS011;12094;50.822;4.376;2022-08-04T14:37:10;13.13;;;4.03;;
23826;SDS011;12094;50.822;4.376;2022-08-04T14:39:45;12.05;;;4.43;;
23826;SDS011;12094;50.822;4.376;2022-08-04T14:42:40;14.40;;;4.10;;
23826;SDS011;12094;50.822;4.376;2022-08-04T14:45:28;7.75;;;4.03;;
23826;SDS011;12094;50.822;4.376;2022-08-04T14:48:20;9.18;;;3.80;;
23826;SDS011;12094;50.822;4.376;2022-08-04T14:50:51;9.75;;;4.20;;
23826;SDS011;12094;50.822;4.376;2022-08-04T14:53:21;10.07;;;3.88;;
23826;SDS011;12094;50.822;4.376;2022-08-04T14:55:56;7.80;;;4.28;;
23826;SDS011;12094;50.822;4.376;2022-08-04T14:58:29;11.40;;;4.63;;
23826;SDS011;12094;50.822;4.376;2022-08-04T15:01:04;10.23;;;4.55;;
23826;SDS011;12094;50.822;4.376;2022-08-04T15:03:38;10.10;;;4.38;;
23826;SDS011;12094;50.822;4.376;2022-08-04T15:06:26;8.93;;;4.65;;
23826;SDS011;12094;50.822;4.376;2022-08-04T15:08:54;7.05;;;5.00;;
23826;SDS011;12094;50.822;4.376;2022-08-04T15:11:23;9.55;;;4.90;;
23826;SDS011;12094;50.822;4.376;2022-08-04T15:13:51;11.07;;;5.07;;
23826;SDS011;12094;50.822;4.376;2022-08-04T15:16:20;7.68;;;5.07;;
23826;SDS011;12094;50.822;4.376;2022-08-04T15:18:47;7.30;;;5.03;;
23826;SDS011;12094;50.822;4.376;2022-08-04T15:21:16;12.43;;;4.60;;
23826;SDS011;12094;50.822;4.376;2022-08-04T15:23:44;8.70;;;4.60;;
23826;SDS011;12094;50.822;4.376;2022-08-04T15:26:12;6.25;;;3.85;;
23826;SDS011;12094;50.822;4.376;2022-08-04T15:31:15;10.35;;;4.45;;
23826;SDS011;12094;50.822;4.376;2022-08-04T15:34:05;5.40;;;3.85;;
23826;SDS011;12094;50.822;4.376;2022-08-04T15:36:34;7.47;;;3.38;;
23826;SDS011;12094;50.822;4.376;2022-08-04T15:42:29;7.90;;;3.42;;
23826;SDS011;12094;50.822;4.376;2022-08-04T15:50:59;5.60;;;3.70;;
23826;SDS011;12094;50.822;4.376;2022-08-04T15:56:42;6.50;;;3.25;;
23826;SDS011;12094;50.822;4.376;2022-08-04T16:02:38;8.10;;;3.85;;
23826;SDS011;12094;50.822;4.376;2022-08-04T16:07:59;11.00;;;3.45;;
23826;SDS011;12094;50.822;4.376;2022-08-04T16:10:35;7.18;;;3.67;;
23826;SDS011;12094;50.822;4.376;2022-08-04T16:13:11;8.63;;;3.80;;
23826;SDS011;12094;50.822;4.376;2022-08-04T16:15:50;12.70;;;3.88;;
23826;SDS011;12094;50.822;4.376;2022-08-04T16:20:58;12.27;;;5.30;;
23826;SDS011;12094;50.822;4.376;2022-08-04T16:26:40;9.43;;;3.78;;
23826;SDS011;12094;50.822;4.376;2022-08-04T16:37:19;4.40;;;3.03;;
23826;SDS011;12094;50.822;4.376;2022-08-04T16:39:47;10.32;;;3.40;;
23826;SDS011;12094;50.822;4.376;2022-08-04T16:50:17;17.58;;;4.22;;
23826;SDS011;12094;50.822;4.376;2022-08-04T16:52:47;10.45;;;3.40;;
23826;SDS011;12094;50.822;4.376;2022-08-04T16:55:16;6.63;;;3.22;;
23826;SDS011;12094;50.822;4.376;2022-08-04T16:57:46;9.27;;;3.20;;
23826;SDS011;12094;50.822;4.376;2022-08-04T17:00:15;4.05;;;3.25;;
23826;SDS011;12094;50.822;4.376;2022-08-04T17:02:43;9.27;;;3.50;;
23826;SDS011;12094;50.822;4.376;2022-08-04T17:05:19;12.52;;;3.70;;
23826;SDS011;12094;50.822;4.376;2022-08-04T17:08:06;9.90;;;3.60;;
23826;SDS011;12094;50.822;4.376;2022-08-04T17:10:54;9.98;;;3.90;;
23826;SDS011;12094;50.822;4.376;2022-08-04T17:13:31;14.52;;;4.10;;
23826;SDS011;12094;50.822;4.376;2022-08-04T17:16:27;10.40;;;3.45;;
23826;SDS011;12094;50.822;4.376;2022-08-04T17:18:56;6.70;;;3.10;;
23826;SDS011;12094;50.822;4.376;2022-08-04T17:21:29;8.05;;;3.00;;
23826;SDS011;12094;50.822;4.376;2022-08-04T17:23:59;11.43;;;3.13;;
23826;SDS011;12094;50.822;4.376;2022-08-04T17:26:43;3.67;;;2.63;;
23826;SDS011;12094;50.822;4.376;2022-08-04T17:29:20;7.88;;;2.97;;
23826;SDS011;12094;50.822;4.376;2022-08-04T17:32:14;13.65;;;3.40;;
23826;SDS011;12094;50.822;4.376;2022-08-04T17:34:44;8.15;;;3.10;;
23826;SDS011;12094;50.822;4.376;2022-08-04T17:37:15;6.88;;;2.70;;
23826;SDS011;12094;50.822;4.376;2022-08-04T17:40:13;9.43;;;2.80;;
23826;SDS011;12094;50.822;4.376;2022-08-04T17:43:00;6.15;;;3.28;;
23826;SDS011;12094;50.822;4.376;2022-08-04T17:49:36;9.00;;;3.30;;
23826;SDS011;12094;50.822;4.376;2022-08-04T17:54:36;8.70;;;3.65;;
23826;SDS011;12094;50.822;4.376;2022-08-04T17:57:24;10.65;;;3.00;;
23826;SDS011;12094;50.822;4.376;2022-08-04T17:59:55;10.98;;;3.70;;
23826;SDS011;12094;50.822;4.376;2022-08-04T18:02:29;6.68;;;3.40;;
23826;SDS011;12094;50.822;4.376;2022-08-04T18:05:01;8.98;;;3.47;;
23826;SDS011;12094;50.822;4.376;2022-08-04T18:07:41;10.00;;;3.72;;
23826;SDS011;12094;50.822;4.376;2022-08-04T18:10:35;9.45;;;3.28;;
23826;SDS011;12094;50.822;4.376;2022-08-04T18:13:21;7.50;;;3.60;;
23826;SDS011;12094;50.822;4.376;2022-08-04T18:16:03;11.10;;;3.77;;
23826;SDS011;12094;50.822;4.376;2022-08-04T18:19:05;9.82;;;3.80;;
23826;SDS011;12094;50.822;4.376;2022-08-04T18:21:33;8.05;;;3.40;;
23826;SDS011;12094;50.822;4.376;2022-08-04T18:24:32;11.43;;;3.70;;
23826;SDS011;12094;50.822;4.376;2022-08-04T18:27:20;6.18;;;3.25;;
23826;SDS011;12094;50.822;4.376;2022-08-04T18:29:50;10.40;;;3.80;;
23826;SDS011;12094;50.822;4.376;2022-08-04T18:32:37;6.32;;;3.10;;
23826;SDS011;12094;50.822;4.376;2022-08-04T18:35:25;7.35;;;3.45;;
23826;SDS011;12094;50.822;4.376;2022-08-04T18:38:13;7.57;;;3.40;;
23826;SDS011;12094;50.822;4.376;2022-08-04T18:40:52;7.00;;;3.45;;
23826;SDS011;12094;50.822;4.376;2022-08-04T18:43:21;10.93;;;3.57;;
23826;SDS011;12094;50.822;4.376;2022-08-04T18:45:53;11.05;;;3.63;;
23826;SDS011;12094;50.822;4.376;2022-08-04T18:48:21;5.20;;;2.92;;
23826;SDS011;12094;50.822;4.376;2022-08-04T18:51:03;9.10;;;2.80;;
23826;SDS011;12094;50.822;4.376;2022-08-04T18:53:51;9.30;;;3.47;;
23826;SDS011;12094;50.822;4.376;2022-08-04T18:56:26;8.35;;;3.22;;
23826;SDS011;12094;50.822;4.376;2022-08-04T18:58:58;12.07;;;3.30;;
23826;SDS011;12094;50.822;4.376;2022-08-04T19:01:29;10.05;;;3.45;;
23826;SDS011;12094;50.822;4.376;2022-08-04T19:04:17;6.63;;;3.40;;
23826;SDS011;12094;50.822;4.376;2022-08-04T19:07:00;10.20;;;3.75;;
23826;SDS011;12094;50.822;4.376;2022-08-04T19:09:48;10.57;;;4.10;;
23826;SDS011;12094;50.822;4.376;2022-08-04T19:12:24;9.50;;;4.15;;
23826;SDS011;12094;50.822;4.376;2022-08-04T19:14:54;11.68;;;4.20;;
23826;SDS011;12094;50.822;4.376;2022-08-04T19:17:26;13.77;;;4.90;;
23826;SDS011;12094;50.822;4.376;2022-08-04T19:20:14;11.82;;;5.10;;
23826;SDS011;12094;50.822;4.376;2022-08-04T19:23:02;14.27;;;4.97;;
23826;SDS011;12094;50.822;4.376;2022-08-04T19:25:50;19.88;;;6.25;;
23826;SDS011;12094;50.822;4.376;2022-08-04T19:28:37;12.98;;;4.82;;
23826;SDS011;12094;50.822;4.376;2022-08-04T19:31:07;13.65;;;4.93;;
23826;SDS011;12094;50.822;4.376;2022-08-04T19:33:35;13.15;;;5.53;;
23826;SDS011;12094;50.822;4.376;2022-08-04T19:36:24;10.10;;;5.03;;
23826;SDS011;12094;50.822;4.376;2022-08-04T19:38:59;12.63;;;5.03;;
23826;SDS011;12094;50.822;4.376;2022-08-04T19:41:34;13.05;;;5.55;;
23826;SDS011;12094;50.822;4.376;2022-08-04T19:44:22;12.45;;;4.95;;
23826;SDS011;12094;50.822;4.376;2022-08-04T19:46:49;12.93;;;5.35;;
23826;SDS011;12094;50.822;4.376;2022-08-04T19:49:19;12.15;;;5.40;;
23826;SDS011;12094;50.822;4.376;2022-08-04T19:52:06;14.40;;;6.13;;
23826;SDS011;12094;50.822;4.376;2022-08-04T19:54:34;10.30;;;5.03;;
23826;SDS011;12094;50.822;4.376;2022-08-04T19:57:06;10.77;;;5.53;;
23826;SDS011;12094;50.822;4.376;2022-08-04T19:59:34;15.48;;;6.57;;
23826;SDS011;12094;50.822;4.376;2022-08-04T20:02:16;11.93;;;5.55;;
23826;SDS011;12094;50.822;4.376;2022-08-04T20:04:44;13.65;;;6.80;;
23826;SDS011;12094;50.822;4.376;2022-08-04T20:07:12;13.95;;;5.70;;
23826;SDS011;12094;50.822;4.376;2022-08-04T20:09:40;13.55;;;6.05;;
23826;SDS011;12094;50.822;4.376;2022-08-04T20:12:18;14.07;;;5.78;;
23826;SDS011;12094;50.822;4.376;2022-08-04T20:14:46;15.85;;;5.70;;
23826;SDS011;12094;50.822;4.376;2022-08-04T20:17:17;11.70;;;5.88;;
23826;SDS011;12094;50.822;4.376;2022-08-04T20:20:05;13.13;;;5.93;;
23826;SDS011;12094;50.822;4.376;2022-08-04T20:22:34;11.55;;;5.97;;
23826;SDS011;12094;50.822;4.376;2022-08-04T20:25:19;9.13;;;5.22;;
23826;SDS011;12094;50.822;4.376;2022-08-04T20:28:05;9.30;;;5.13;;
23826;SDS011;12094;50.822;4.376;2022-08-04T20:30:51;9.85;;;5.13;;
23826;SDS011;12094;50.822;4.376;2022-08-04T20:33:19;11.18;;;5.60;;
23826;SDS011;12094;50.822;4.376;2022-08-04T20:35:49;12.82;;;5.65;;
23826;SDS011;12094;50.822;4.376;2022-08-04T20:38:31;10.38;;;5.30;;
23826;SDS011;12094;50.822;4.376;2022-08-04T20:40:59;10.38;;;5.22;;
23826;SDS011;12094;50.822;4.376;2022-08-04T20:43:29;10.90;;;5.75;;
23826;SDS011;12094;50.822;4.376;2022-08-04T20:45:57;9.80;;;5.40;;
23826;SDS011;12094;50.822;4.376;2022-08-04T20:48:28;13.27;;;4.72;;